sensor_id;sensor_type;location;lat;lon;timestamp;pressure;altitude;pressure_sealevel;temperature;humidity
7407;BME280;3745;56.964;24.128;2023-06-24T00:01:34;101434.13;;;18.40;100.00
7407;BME280;3745;56.964;24.128;2023-06-24T00:04:00;101465.66;;;18.57;100.00
7407;BME280;3745;56.964;24.128;2023-06-24T00:06:26;101410.38;;;18.23;100.00
7407;BME280;3745;56.964;24.128;2023-06-24T00:08:52;101452.97;;;18.37;100.00
7407;BME280;3745;56.964;24.128;2023-06-24T00:11:26;101469.97;;;18.46;100.00
7407;BME280;3745;56.964;24.128;2023-06-24T00:13:52;101312.75;;;17.45;100.00
7407;BME280;3745;56.964;24.128;2023-06-24T00:16:18;101308.50;;;17.47;100.00
7407;BME280;3745;56.964;24.128;2023-06-24T00:18:51;101468.31;;;18.42;100.00
7407;BME280;3745;56.964;24.128;2023-06-24T00:21:18;101485.34;;;18.49;100.00
7407;BME280;3745;56.964;24.128;2023-06-24T00:23:45;101486.22;;;18.51;100.00
7407;BME280;3745;56.964;24.128;2023-06-24T00:26:10;101459.75;;;18.40;100.00
7407;BME280;3745;56.964;24.128;2023-06-24T00:28:36;101451.38;;;18.23;100.00
7407;BME280;3745;56.964;24.128;2023-06-24T00:31:02;101442.91;;;18.15;100.00
7407;BME280;3745;56.964;24.128;2023-06-24T00:33:29;101461.63;;;18.23;100.00
7407;BME280;3745;56.964;24.128;2023-06-24T00:35:54;101481.25;;;18.25;100.00
7407;BME280;3745;56.964;24.128;2023-06-24T00:38:22;101488.88;;;18.33;100.00
7407;BME280;3745;56.964;24.128;2023-06-24T00:40:47;101482.03;;;18.35;100.00
7407;BME280;3745;56.964;24.128;2023-06-24T00:43:13;101470.13;;;18.25;100.00
7407;BME280;3745;56.964;24.128;2023-06-24T00:45:39;101482.91;;;18.32;100.00
7407;BME280;3745;56.964;24.128;2023-06-24T00:48:06;101492.28;;;18.35;100.00
7407;BME280;3745;56.964;24.128;2023-06-24T00:50:32;101448.09;;;18.03;100.00
7407;BME280;3745;56.964;24.128;2023-06-24T00:52:57;101418.38;;;17.80;100.00
7407;BME280;3745;56.964;24.128;2023-06-24T00:55:23;101504.34;;;18.21;100.00
7407;BME280;3745;56.964;24.128;2023-06-24T00:57:51;101441.38;;;17.86;100.00
7407;BME280;3745;56.964;24.128;2023-06-24T01:00:20;101511.19;;;18.16;100.00
7407;BME280;3745;56.964;24.128;2023-06-24T01:02:47;101506.13;;;18.11;100.00
7407;BME280;3745;56.964;24.128;2023-06-24T01:05:14;101489.09;;;17.97;100.00
7407;BME280;3745;56.964;24.128;2023-06-24T01:07:41;101504.44;;;18.09;100.00
7407;BME280;3745;56.964;24.128;2023-06-24T01:10:08;101512.09;;;18.10;100.00
7407;BME280;3745;56.964;24.128;2023-06-24T01:12:36;101511.22;;;18.13;100.00
7407;BME280;3745;56.964;24.128;2023-06-24T01:15:05;101514.66;;;18.12;100.00
7407;BME280;3745;56.964;24.128;2023-06-24T01:20:25;101509.56;;;18.03;100.00
7407;BME280;3745;56.964;24.128;2023-06-24T01:26:14;101499.41;;;17.87;100.00
7407;BME280;3745;56.964;24.128;2023-06-24T01:31:33;101519.84;;;17.97;100.00
7407;BME280;3745;56.964;24.128;2023-06-24T01:34:08;101513.94;;;17.90;100.00
7407;BME280;3745;56.964;24.128;2023-06-24T01:36:40;101504.56;;;17.83;100.00
7407;BME280;3745;56.964;24.128;2023-06-24T01:39:12;101528.41;;;17.96;100.00
7407;BME280;3745;56.964;24.128;2023-06-24T01:41:45;101488.44;;;17.67;100.00
7407;BME280;3745;56.964;24.128;2023-06-24T01:44:14;101506.28;;;17.75;100.00
7407;BME280;3745;56.964;24.128;2023-06-24T01:46:41;101528.44;;;17.90;100.00
7407;BME280;3745;56.964;24.128;2023-06-24T01:49:12;101521.59;;;17.92;100.00
7407;BME280;3745;56.964;24.128;2023-06-24T01:51:39;101513.94;;;17.90;100.00
7407;BME280;3745;56.964;24.128;2023-06-24T01:54:11;101495.22;;;17.73;100.00
7407;BME280;3745;56.964;24.128;2023-06-24T01:56:39;101528.44;;;17.90;100.00
7407;BME280;3745;56.964;24.128;2023-06-24T01:59:07;101528.44;;;17.88;100.00
7407;BME280;3745;56.964;24.128;2023-06-24T02:01:35;101527.56;;;17.87;100.00
7407;BME280;3745;56.964;24.128;2023-06-24T02:04:04;101454.38;;;17.40;100.00
7407;BME280;3745;56.964;24.128;2023-06-24T02:06:33;101443.34;;;17.27;100.00
7407;BME280;3745;56.964;24.128;2023-06-24T02:09:01;101536.16;;;17.86;100.00
7407;BME280;3745;56.964;24.128;2023-06-24T02:11:30;101484.19;;;17.54;100.00
7407;BME280;3745;56.964;24.128;2023-06-24T02:13:59;101532.72;;;17.86;100.00
7407;BME280;3745;56.964;24.128;2023-06-24T02:16:27;101527.56;;;17.87;100.00
7407;BME280;3745;56.964;24.128;2023-06-24T02:18:55;101528.50;;;17.80;100.00
7407;BME280;3745;56.964;24.128;2023-06-24T02:21:23;101528.47;;;17.83;100.00
7407;BME280;3745;56.964;24.128;2023-06-24T02:23:49;101530.16;;;17.84;100.00
7407;BME280;3745;56.964;24.128;2023-06-24T02:26:17;101533.59;;;17.83;100.00
7407;BME280;3745;56.964;24.128;2023-06-24T02:28:44;101502.94;;;17.68;100.00
7407;BME280;3745;56.964;24.128;2023-06-24T02:31:12;101536.13;;;17.90;100.00
7407;BME280;3745;56.964;24.128;2023-06-24T02:33:39;101482.50;;;17.62;100.00
7407;BME280;3745;56.964;24.128;2023-06-24T02:36:05;101502.03;;;17.77;100.00
7407;BME280;3745;56.964;24.128;2023-06-24T02:38:31;101530.94;;;18.02;100.00
7407;BME280;3745;56.964;24.128;2023-06-24T02:40:56;101530.06;;;18.00;100.00
7407;BME280;3745;56.964;24.128;2023-06-24T02:43:23;101531.78;;;18.04;100.00
7407;BME280;3745;56.964;24.128;2023-06-24T02:45:49;101497.72;;;17.85;100.00
7407;BME280;3745;56.964;24.128;2023-06-24T02:48:16;101537.72;;;18.10;100.00
7407;BME280;3745;56.964;24.128;2023-06-24T02:50:43;101472.19;;;17.74;100.00
7407;BME280;3745;56.964;24.128;2023-06-24T02:53:11;101504.47;;;17.97;100.00
7407;BME280;3745;56.964;24.128;2023-06-24T02:55:38;101530.03;;;18.12;100.00
7407;BME280;3745;56.964;24.128;2023-06-24T02:58:05;101531.69;;;18.16;100.00
7407;BME280;3745;56.964;24.128;2023-06-24T03:00:37;101528.25;;;18.20;100.00
7407;BME280;3745;56.964;24.128;2023-06-24T03:03:04;101524.00;;;18.19;100.00
7407;BME280;3745;56.964;24.128;2023-06-24T03:05:30;101539.31;;;18.29;100.00
7407;BME280;3745;56.964;24.128;2023-06-24T03:07:58;101532.47;;;18.33;100.00
7407;BME280;3745;56.964;24.128;2023-06-24T03:10:25;101522.25;;;18.27;100.00
7407;BME280;3745;56.964;24.128;2023-06-24T03:12:51;101538.41;;;18.35;100.00
7407;BME280;3745;56.964;24.128;2023-06-24T03:15:17;101520.56;;;18.21;100.00
7407;BME280;3745;56.964;24.128;2023-06-24T03:17:43;101541.00;;;18.30;100.00
7407;BME280;3745;56.964;24.128;2023-06-24T03:20:09;101523.13;;;18.20;100.00
7407;BME280;3745;56.964;24.128;2023-06-24T03:22:35;101553.84;;;18.29;100.00
7407;BME280;3745;56.964;24.128;2023-06-24T03:25:02;101548.72;;;18.29;100.00
7407;BME280;3745;56.964;24.128;2023-06-24T03:27:28;101504.44;;;18.03;100.00
7407;BME280;3745;56.964;24.128;2023-06-24T03:29:53;101534.28;;;18.10;100.00
7407;BME280;3745;56.964;24.128;2023-06-24T03:32:19;101547.88;;;18.25;100.00
7407;BME280;3745;56.964;24.128;2023-06-24T03:34:45;101564.88;;;18.38;100.00
7407;BME280;3745;56.964;24.128;2023-06-24T03:37:10;101490.00;;;17.93;100.00
7407;BME280;3745;56.964;24.128;2023-06-24T03:39:36;101535.91;;;18.24;100.00
7407;BME280;3745;56.964;24.128;2023-06-24T03:42:02;101543.59;;;18.29;100.00
7407;BME280;3745;56.964;24.128;2023-06-24T03:44:27;101563.13;;;18.45;100.00
7407;BME280;3745;56.964;24.128;2023-06-24T03:46:53;101552.03;;;18.40;100.00
7407;BME280;3745;56.964;24.128;2023-06-24T03:49:18;101557.13;;;18.52;100.00
7407;BME280;3745;56.964;24.128;2023-06-24T03:51:44;101563.94;;;18.56;100.00
7407;BME280;3745;56.964;24.128;2023-06-24T03:54:09;101548.59;;;18.44;100.00
7407;BME280;3745;56.964;24.128;2023-06-24T03:56:35;101574.13;;;18.65;100.00
7407;BME280;3745;56.964;24.128;2023-06-24T03:59:01;101576.63;;;18.74;100.00
7407;BME280;3745;56.964;24.128;2023-06-24T04:01:26;101579.19;;;18.74;100.00
7407;BME280;3745;56.964;24.128;2023-06-24T04:03:57;101576.56;;;18.80;100.00
7407;BME280;3745;56.964;24.128;2023-06-24T04:06:23;101524.66;;;18.51;100.00
7407;BME280;3745;56.964;24.128;2023-06-24T04:08:49;101580.81;;;18.84;100.00
7407;BME280;3745;56.964;24.128;2023-06-24T04:11:17;101541.63;;;18.67;100.00
7407;BME280;3745;56.964;24.128;2023-06-24T04:13:44;101550.16;;;18.69;100.00
7407;BME280;3745;56.964;24.128;2023-06-24T04:16:10;101573.94;;;18.89;100.00
7407;BME280;3745;56.964;24.128;2023-06-24T04:18:36;101573.03;;;18.92;100.00
7407;BME280;3745;56.964;24.128;2023-06-24T04:21:05;101573.91;;;18.92;100.00
7407;BME280;3745;56.964;24.128;2023-06-24T04:23:32;101554.31;;;18.84;100.00
7407;BME280;3745;56.964;24.128;2023-06-24T04:25:58;101565.19;;;19.12;100.00
7407;BME280;3745;56.964;24.128;2023-06-24T04:28:24;101548.06;;;19.11;100.00
7407;BME280;3745;56.964;24.128;2023-06-24T04:30:49;101515.56;;;19.13;100.00
7407;BME280;3745;56.964;24.128;2023-06-24T04:33:15;101561.22;;;19.64;100.00
7407;BME280;3745;56.964;24.128;2023-06-24T04:35:41;101553.41;;;19.75;100.00
7407;BME280;3745;56.964;24.128;2023-06-24T04:38:06;101546.28;;;19.93;100.00
7407;BME280;3745;56.964;24.128;2023-06-24T04:40:32;101534.22;;;20.00;100.00
7407;BME280;3745;56.964;24.128;2023-06-24T04:42:57;101523.16;;;19.93;100.00
7407;BME280;3745;56.964;24.128;2023-06-24T04:45:23;101480.59;;;19.77;100.00
7407;BME280;3745;56.964;24.128;2023-06-24T04:47:49;101371.91;;;19.10;100.00
7407;BME280;3745;56.964;24.128;2023-06-24T04:50:14;101504.22;;;20.00;100.00
7407;BME280;3745;56.964;24.128;2023-06-24T04:52:40;101517.94;;;19.99;100.00
7407;BME280;3745;56.964;24.128;2023-06-24T04:55:06;101509.38;;;20.00;100.00
7407;BME280;3745;56.964;24.128;2023-06-24T04:57:32;101532.88;;;20.36;100.00
7407;BME280;3745;56.964;24.128;2023-06-24T04:59:59;101522.66;;;20.33;100.00
7407;BME280;3745;56.964;24.128;2023-06-24T05:02:25;101529.50;;;20.31;100.00
7407;BME280;3745;56.964;24.128;2023-06-24T05:04:52;101535.47;;;20.36;100.00
7407;BME280;3745;56.964;24.128;2023-06-24T05:07:18;101537.94;;;20.40;100.00
7407;BME280;3745;56.964;24.128;2023-06-24T05:09:47;101539.84;;;20.28;100.00
7407;BME280;3745;56.964;24.128;2023-06-24T05:12:12;101550.13;;;20.28;100.00
7407;BME280;3745;56.964;24.128;2023-06-24T05:14:38;101550.84;;;20.39;100.00
7407;BME280;3745;56.964;24.128;2023-06-24T05:17:04;101528.91;;;20.12;100.00
7407;BME280;3745;56.964;24.128;2023-06-24T05:19:29;101536.56;;;20.17;100.00
7407;BME280;3745;56.964;24.128;2023-06-24T05:21:55;101546.75;;;20.23;100.00
7407;BME280;3745;56.964;24.128;2023-06-24T05:24:21;101557.03;;;20.26;100.00
7407;BME280;3745;56.964;24.128;2023-06-24T05:26:49;101548.50;;;20.21;100.00
7407;BME280;3745;56.964;24.128;2023-06-24T05:29:14;101550.19;;;20.22;100.00
7407;BME280;3745;56.964;24.128;2023-06-24T05:31:40;101509.38;;;20.00;100.00
7407;BME280;3745;56.964;24.128;2023-06-24T05:34:06;101569.03;;;20.24;100.00
7407;BME280;3745;56.964;24.128;2023-06-24T05:36:33;101561.41;;;20.16;100.00
7407;BME280;3745;56.964;24.128;2023-06-24T05:38:59;101568.94;;;20.33;100.00
7407;BME280;3745;56.964;24.128;2023-06-24T05:41:24;101575.00;;;20.24;100.00
7407;BME280;3745;56.964;24.128;2023-06-24T05:44:01;101567.22;;;20.32;100.00
7407;BME280;3745;56.964;24.128;2023-06-24T05:46:28;101565.19;;;20.52;100.00
7407;BME280;3745;56.964;24.128;2023-06-24T05:48:53;101525.59;;;20.62;100.00
7407;BME280;3745;56.964;24.128;2023-06-24T05:51:19;101505.28;;;20.47;100.00
7407;BME280;3745;56.964;24.128;2023-06-24T05:53:44;101559.75;;;20.73;100.00
7407;BME280;3745;56.964;24.128;2023-06-24T05:56:10;101543.50;;;20.68;100.00
7407;BME280;3745;56.964;24.128;2023-06-24T05:58:36;101514.00;;;20.37;100.00
7407;BME280;3745;56.964;24.128;2023-06-24T06:01:01;101560.91;;;20.52;100.00
7407;BME280;3745;56.964;24.128;2023-06-24T06:03:27;101558.13;;;20.66;100.00
7407;BME280;3745;56.964;24.128;2023-06-24T06:05:52;101564.94;;;20.70;100.00
7407;BME280;3745;56.964;24.128;2023-06-24T06:08:18;101493.69;;;20.19;100.00
7407;BME280;3745;56.964;24.128;2023-06-24T06:10:43;101550.41;;;20.65;100.00
7407;BME280;3745;56.964;24.128;2023-06-24T06:13:09;101423.56;;;20.09;100.00
7407;BME280;3745;56.964;24.128;2023-06-24T06:15:35;101550.47;;;21.14;100.00
7407;BME280;3745;56.964;24.128;2023-06-24T06:18:00;101540.06;;;21.20;100.00
7407;BME280;3745;56.964;24.128;2023-06-24T06:20:26;101547.28;;;21.45;100.00
7407;BME280;3745;56.964;24.128;2023-06-24T06:22:52;101548.22;;;21.43;100.00
7407;BME280;3745;56.964;24.128;2023-06-24T06:25:18;101541.16;;;21.51;100.00
7407;BME280;3745;56.964;24.128;2023-06-24T06:27:43;101529.56;;;21.32;100.00
7407;BME280;3745;56.964;24.128;2023-06-24T06:30:09;101553.66;;;21.28;100.00
7407;BME280;3745;56.964;24.128;2023-06-24T06:32:35;101553.13;;;21.09;100.00
7407;BME280;3745;56.964;24.128;2023-06-24T06:35:01;101550.53;;;21.07;100.00
7407;BME280;3745;56.964;24.128;2023-06-24T06:37:26;101529.03;;;21.13;100.00
7407;BME280;3745;56.964;24.128;2023-06-24T06:39:52;101535.94;;;21.54;100.00
7407;BME280;3745;56.964;24.128;2023-06-24T06:42:18;101540.66;;;21.75;100.00
7407;BME280;3745;56.964;24.128;2023-06-24T06:44:43;101519.03;;;21.82;100.00
7407;BME280;3745;56.964;24.128;2023-06-24T06:47:10;101528.50;;;21.83;100.00
7407;BME280;3745;56.964;24.128;2023-06-24T06:49:36;101460.44;;;21.52;100.00
7407;BME280;3745;56.964;24.128;2023-06-24T06:52:02;101540.97;;;22.03;100.00
7407;BME280;3745;56.964;24.128;2023-06-24T06:54:28;101546.97;;;22.03;100.00
7407;BME280;3745;56.964;24.128;2023-06-24T06:56:53;101504.59;;;21.75;100.00
7407;BME280;3745;56.964;24.128;2023-06-24T06:59:19;101549.63;;;22.39;100.00
7407;BME280;3745;56.964;24.128;2023-06-24T07:01:44;101528.91;;;22.05;100.00
7407;BME280;3745;56.964;24.128;2023-06-24T07:04:10;101551.91;;;22.12;100.00
7407;BME280;3745;56.964;24.128;2023-06-24T07:06:35;101530.56;;;21.66;100.00
7407;BME280;3745;56.964;24.128;2023-06-24T07:09:01;101545.69;;;21.81;100.00
7407;BME280;3745;56.964;24.128;2023-06-24T07:11:27;101550.44;;;22.02;100.00
7407;BME280;3745;56.964;24.128;2023-06-24T07:13:52;101555.28;;;22.18;100.00
7407;BME280;3745;56.964;24.128;2023-06-24T07:16:18;101556.38;;;22.43;100.00
7407;BME280;3745;56.964;24.128;2023-06-24T07:18:45;101542.53;;;22.47;100.00
7407;BME280;3745;56.964;24.128;2023-06-24T07:21:10;101513.78;;;22.27;100.00
7407;BME280;3745;56.964;24.128;2023-06-24T07:23:36;101547.53;;;22.53;100.00
7407;BME280;3745;56.964;24.128;2023-06-24T07:26:02;101555.06;;;22.62;100.00
7407;BME280;3745;56.964;24.128;2023-06-24T07:28:27;101515.88;;;22.11;100.00
7407;BME280;3745;56.964;24.128;2023-06-24T07:30:53;101566.56;;;22.49;100.00
7407;BME280;3745;56.964;24.128;2023-06-24T07:33:18;101566.69;;;22.43;100.00
7407;BME280;3745;56.964;24.128;2023-06-24T07:35:44;101569.19;;;22.46;100.00
7407;BME280;3745;56.964;24.128;2023-06-24T07:38:10;101539.66;;;22.24;100.00
7407;BME280;3745;56.964;24.128;2023-06-24T07:40:35;101514.88;;;22.17;100.00
7407;BME280;3745;56.964;24.128;2023-06-24T07:43:01;101551.44;;;22.34;100.00
7407;BME280;3745;56.964;24.128;2023-06-24T07:45:26;101571.44;;;22.61;100.00
7407;BME280;3745;56.964;24.128;2023-06-24T07:47:52;101507.44;;;22.40;100.00
7407;BME280;3745;56.964;24.128;2023-06-24T07:50:17;101537.28;;;22.50;100.00
7407;BME280;3745;56.964;24.128;2023-06-24T07:52:43;101557.00;;;22.54;100.00
7407;BME280;3745;56.964;24.128;2023-06-24T07:55:09;101566.56;;;22.49;100.00
7407;BME280;3745;56.964;24.128;2023-06-24T07:57:34;101567.56;;;22.43;100.00
7407;BME280;3745;56.964;24.128;2023-06-24T08:00:00;101549.75;;;22.33;100.00
7407;BME280;3745;56.964;24.128;2023-06-24T08:02:25;101511.31;;;22.22;100.00
7407;BME280;3745;56.964;24.128;2023-06-24T08:04:51;101579.00;;;22.32;100.00
7407;BME280;3745;56.964;24.128;2023-06-24T08:07:17;101578.41;;;22.21;100.00
7407;BME280;3745;56.964;24.128;2023-06-24T08:09:43;101554.13;;;21.91;100.00
7407;BME280;3745;56.964;24.128;2023-06-24T08:12:09;101499.81;;;21.57;100.00
7407;BME280;3745;56.964;24.128;2023-06-24T08:14:35;101569.50;;;21.95;100.00
7407;BME280;3745;56.964;24.128;2023-06-24T08:17:01;101541.22;;;21.91;100.00
7407;BME280;3745;56.964;24.128;2023-06-24T08:19:26;101579.16;;;22.26;100.00
7407;BME280;3745;56.964;24.128;2023-06-24T08:21:52;101500.94;;;21.85;100.00
7407;BME280;3745;56.964;24.128;2023-06-24T08:24:19;101527.25;;;22.01;100.00
7407;BME280;3745;56.964;24.128;2023-06-24T08:26:44;101573.84;;;22.32;100.00
7407;BME280;3745;56.964;24.128;2023-06-24T08:29:10;101570.75;;;22.18;100.00
7407;BME280;3745;56.964;24.128;2023-06-24T08:31:35;101601.56;;;22.24;100.00
7407;BME280;3745;56.964;24.128;2023-06-24T08:34:01;101520.06;;;21.75;100.00
7407;BME280;3745;56.964;24.128;2023-06-24T08:36:28;101458.88;;;21.45;100.00
7407;BME280;3745;56.964;24.128;2023-06-24T08:38:54;101550.69;;;21.90;100.00
7407;BME280;3745;56.964;24.128;2023-06-24T08:41:20;101598.28;;;22.15;100.00
7407;BME280;3745;56.964;24.128;2023-06-24T08:43:46;101587.16;;;22.13;100.00
7407;BME280;3745;56.964;24.128;2023-06-24T08:46:13;101578.47;;;22.18;100.00
7407;BME280;3745;56.964;24.128;2023-06-24T08:48:42;101600.22;;;22.44;100.00
7407;BME280;3745;56.964;24.128;2023-06-24T08:51:09;101518.53;;;22.06;100.00
7407;BME280;3745;56.964;24.128;2023-06-24T08:53:37;101598.75;;;22.71;100.00
7407;BME280;3745;56.964;24.128;2023-06-24T08:56:04;101602.75;;;22.84;100.00
7407;BME280;3745;56.964;24.128;2023-06-24T08:58:30;101582.94;;;22.85;100.00
7407;BME280;3745;56.964;24.128;2023-06-24T09:00:56;101578.03;;;22.74;100.00
7407;BME280;3745;56.964;24.128;2023-06-24T09:03:22;101588.34;;;22.74;100.00
7407;BME280;3745;56.964;24.128;2023-06-24T09:05:47;101606.94;;;22.88;100.00
7407;BME280;3745;56.964;24.128;2023-06-24T09:08:14;101594.34;;;22.76;100.00
7407;BME280;3745;56.964;24.128;2023-06-24T09:10:41;101591.69;;;22.79;100.00
7407;BME280;3745;56.964;24.128;2023-06-24T09:13:07;101618.16;;;22.87;100.00
7407;BME280;3745;56.964;24.128;2023-06-24T09:15:34;101618.88;;;22.92;100.00
7407;BME280;3745;56.964;24.128;2023-06-24T09:18:01;101622.53;;;22.85;100.00
7407;BME280;3745;56.964;24.128;2023-06-24T09:20:28;101627.53;;;22.91;100.00
7407;BME280;3745;56.964;24.128;2023-06-24T09:23:01;101613.78;;;22.89;100.00
7407;BME280;3745;56.964;24.128;2023-06-24T09:25:28;101598.38;;;22.86;100.00
7407;BME280;3745;56.964;24.128;2023-06-24T09:27:54;101587.34;;;22.80;100.00
7407;BME280;3745;56.964;24.128;2023-06-24T09:30:22;101559.44;;;22.60;100.00
7407;BME280;3745;56.964;24.128;2023-06-24T09:32:49;101619.09;;;22.83;100.00
7407;BME280;3745;56.964;24.128;2023-06-24T09:35:18;101623.19;;;22.92;100.00
7407;BME280;3745;56.964;24.128;2023-06-24T09:37:49;101534.69;;;22.51;100.00
7407;BME280;3745;56.964;24.128;2023-06-24T09:40:15;101628.25;;;22.98;100.00
7407;BME280;3745;56.964;24.128;2023-06-24T09:42:55;101610.63;;;22.78;100.00
7407;BME280;3745;56.964;24.128;2023-06-24T09:45:28;101610.72;;;22.75;100.00
7407;BME280;3745;56.964;24.128;2023-06-24T09:47:54;101624.50;;;22.74;100.00
7407;BME280;3745;56.964;24.128;2023-06-24T09:50:21;101588.56;;;22.66;100.00
7407;BME280;3745;56.964;24.128;2023-06-24T09:52:48;101625.38;;;23.08;100.00
7407;BME280;3745;56.964;24.128;2023-06-24T09:55:16;101635.22;;;23.27;100.00
7407;BME280;3745;56.964;24.128;2023-06-24T09:57:47;101627.94;;;23.44;100.00
7407;BME280;3745;56.964;24.128;2023-06-24T10:00:18;101560.09;;;23.02;100.00
7407;BME280;3745;56.964;24.128;2023-06-24T10:02:45;101638.84;;;23.53;100.00
7407;BME280;3745;56.964;24.128;2023-06-24T10:05:12;101633.03;;;23.47;100.00
7407;BME280;3745;56.964;24.128;2023-06-24T10:07:39;101614.47;;;23.30;100.00
7407;BME280;3745;56.964;24.128;2023-06-24T10:10:06;101644.97;;;23.51;100.00
7407;BME280;3745;56.964;24.128;2023-06-24T10:12:34;101645.78;;;23.53;100.00
7407;BME280;3745;56.964;24.128;2023-06-24T10:15:00;101643.13;;;23.56;100.00
7407;BME280;3745;56.964;24.128;2023-06-24T10:17:26;101641.59;;;23.49;100.00
7407;BME280;3745;56.964;24.128;2023-06-24T10:19:53;101620.50;;;23.30;95.33
7407;BME280;3745;56.964;24.128;2023-06-24T10:22:22;101486.81;;;22.75;99.66
7407;BME280;3745;56.964;24.128;2023-06-24T10:24:50;101517.22;;;22.96;96.30
7407;BME280;3745;56.964;24.128;2023-06-24T10:27:19;101635.31;;;23.88;100.00
7407;BME280;3745;56.964;24.128;2023-06-24T10:29:52;101653.13;;;23.99;93.05
7407;BME280;3745;56.964;24.128;2023-06-24T10:32:19;101627.19;;;23.71;89.54
7407;BME280;3745;56.964;24.128;2023-06-24T10:34:55;101654.56;;;23.78;92.67
7407;BME280;3745;56.964;24.128;2023-06-24T10:37:26;101652.78;;;23.80;95.26
7407;BME280;3745;56.964;24.128;2023-06-24T10:39:53;101642.38;;;23.83;94.36
7407;BME280;3745;56.964;24.128;2023-06-24T10:42:42;101652.44;;;23.92;93.19
7407;BME280;3745;56.964;24.128;2023-06-24T10:47:40;101651.84;;;23.52;95.84
7407;BME280;3745;56.964;24.128;2023-06-24T10:50:09;101585.50;;;23.18;96.94
7407;BME280;3745;56.964;24.128;2023-06-24T10:52:39;101629.13;;;23.63;99.40
7407;BME280;3745;56.964;24.128;2023-06-24T10:55:06;101642.03;;;23.64;89.97
7407;BME280;3745;56.964;24.128;2023-06-24T10:57:32;101638.38;;;23.71;88.09
7407;BME280;3745;56.964;24.128;2023-06-24T10:59:58;101617.34;;;23.53;88.40
7407;BME280;3745;56.964;24.128;2023-06-24T11:02:25;101591.69;;;23.47;88.81
7407;BME280;3745;56.964;24.128;2023-06-24T11:04:55;101616.59;;;23.80;88.91
7407;BME280;3745;56.964;24.128;2023-06-24T11:07:26;101642.09;;;23.92;90.99
7407;BME280;3745;56.964;24.128;2023-06-24T11:09:56;101652.34;;;23.95;93.28
7407;BME280;3745;56.964;24.128;2023-06-24T11:12:27;101609.88;;;23.73;94.13
7407;BME280;3745;56.964;24.128;2023-06-24T11:15:01;101665.91;;;24.03;95.82
7407;BME280;3745;56.964;24.128;2023-06-24T11:17:27;101665.91;;;24.03;96.30
7407;BME280;3745;56.964;24.128;2023-06-24T11:19:54;101654.06;;;23.96;97.66
7407;BME280;3745;56.964;24.128;2023-06-24T11:22:21;101669.75;;;23.90;95.53
7407;BME280;3745;56.964;24.128;2023-06-24T11:24:47;101676.22;;;23.74;98.02
7407;BME280;3745;56.964;24.128;2023-06-24T11:27:13;101667.03;;;23.64;100.00
7407;BME280;3745;56.964;24.128;2023-06-24T11:29:38;101660.63;;;23.45;100.00
7407;BME280;3745;56.964;24.128;2023-06-24T11:32:07;101674.66;;;23.35;100.00
7407;BME280;3745;56.964;24.128;2023-06-24T11:34:33;101673.69;;;23.39;100.00
7407;BME280;3745;56.964;24.128;2023-06-24T11:36:58;101662.78;;;23.28;100.00
7407;BME280;3745;56.964;24.128;2023-06-24T11:39:34;101680.63;;;23.37;100.00
7407;BME280;3745;56.964;24.128;2023-06-24T11:42:00;101605.94;;;22.94;100.00
7407;BME280;3745;56.964;24.128;2023-06-24T11:44:26;101683.44;;;23.28;100.00
7407;BME280;3745;56.964;24.128;2023-06-24T11:46:52;101678.72;;;23.09;100.00
7407;BME280;3745;56.964;24.128;2023-06-24T11:49:19;101648.19;;;22.91;100.00
7407;BME280;3745;56.964;24.128;2023-06-24T11:51:46;101678.50;;;23.18;100.00
7407;BME280;3745;56.964;24.128;2023-06-24T11:54:17;101675.16;;;23.13;100.00
7407;BME280;3745;56.964;24.128;2023-06-24T11:56:44;101620.97;;;22.78;100.00
7407;BME280;3745;56.964;24.128;2023-06-24T12:01:44;101684.69;;;23.11;100.00
7407;BME280;3745;56.964;24.128;2023-06-24T12:04:11;101660.69;;;22.71;100.00
7407;BME280;3745;56.964;24.128;2023-06-24T12:06:37;101686.22;;;22.83;100.00
7407;BME280;3745;56.964;24.128;2023-06-24T12:09:02;101686.63;;;23.03;100.00
7407;BME280;3745;56.964;24.128;2023-06-24T12:11:28;101660.19;;;22.92;100.00
7407;BME280;3745;56.964;24.128;2023-06-24T12:13:53;101680.63;;;23.01;100.00
7407;BME280;3745;56.964;24.128;2023-06-24T12:16:19;101640.41;;;22.54;100.00
7407;BME280;3745;56.964;24.128;2023-06-24T12:18:44;101684.69;;;22.76;100.00
7407;BME280;3745;56.964;24.128;2023-06-24T12:21:10;101669.53;;;22.61;100.00
7407;BME280;3745;56.964;24.128;2023-06-24T12:23:36;101679.78;;;22.64;100.00
7407;BME280;3745;56.964;24.128;2023-06-24T12:26:01;101679.31;;;22.85;100.00
7407;BME280;3745;56.964;24.128;2023-06-24T12:28:27;101671.34;;;22.94;100.00
7407;BME280;3745;56.964;24.128;2023-06-24T12:30:53;101645.69;;;22.88;100.00
7407;BME280;3745;56.964;24.128;2023-06-24T12:33:18;101682.13;;;23.11;100.00
7407;BME280;3745;56.964;24.128;2023-06-24T12:35:46;101658.53;;;22.91;100.00
7407;BME280;3745;56.964;24.128;2023-06-24T12:38:11;101673.72;;;23.03;100.00
7407;BME280;3745;56.964;24.128;2023-06-24T12:40:37;101675.31;;;23.07;100.00
7407;BME280;3745;56.964;24.128;2023-06-24T12:43:03;101669.72;;;23.26;100.00
7407;BME280;3745;56.964;24.128;2023-06-24T12:45:29;101676.66;;;23.23;100.00
7407;BME280;3745;56.964;24.128;2023-06-24T12:47:55;101666.28;;;23.25;100.00
7407;BME280;3745;56.964;24.128;2023-06-24T12:50:20;101583.19;;;22.74;100.00
7407;BME280;3745;56.964;24.128;2023-06-24T12:52:46;101606.94;;;22.88;100.00
7407;BME280;3745;56.964;24.128;2023-06-24T12:55:11;101669.50;;;23.35;100.00
7407;BME280;3745;56.964;24.128;2023-06-24T12:57:37;101679.22;;;23.23;100.00
7407;BME280;3745;56.964;24.128;2023-06-24T13:00:04;101680.09;;;23.22;100.00
7407;BME280;3745;56.964;24.128;2023-06-24T13:02:34;101671.00;;;23.08;100.00